Time;durP1;ratioP1;P1;durP2;ratioP2;P2;SDS_P1;SDS_P2;PMS_P1;PMS_P2;Temp;Humidity;BMP_temperature;BMP_pressure;BME280_temperature;BME280_humidity;BME280_pressure;Samples;Min_cycle;Max_cycle;Signal;HPM_P1;HPM_P2
2022/10/21 00:01:41;;;;;;;44.03;25.07;;;;;;;0.75;86.95;101344.59;1449979;89;22169;-81
2022/10/21 00:04:07;;;;;;;41.98;24.40;;;;;;;0.72;86.16;101348.63;1448748;88;21740;-81
2022/10/21 00:06:33;;;;;;;42.00;24.40;;;;;;;0.65;88.19;101358.46;1452072;88;21389;-82
2022/10/21 00:08:59;;;;;;;45.15;24.25;;;;;;;0.61;87.70;101355.59;1463638;88;22132;-83
2022/10/21 00:11:25;;;;;;;40.13;22.57;;;;;;;0.58;89.32;101358.33;1457033;88;21397;-82
2022/10/21 00:13:51;;;;;;;41.70;21.90;;;;;;;0.56;88.74;101357.53;1477033;87;22085;-83
2022/10/21 00:16:18;;;;;;;40.77;22.83;;;;;;;0.55;87.73;101355.84;1469989;87;22114;-82
2022/10/21 00:18:47;;;;;;;38.58;22.10;;;;;;;0.52;87.69;101352.03;1461756;88;21397;-82
2022/10/21 00:21:18;;;;;;;46.10;22.27;;;;;;;0.42;89.36;101348.95;1444490;89;21552;-81
2022/10/21 00:23:46;;;;;;;43.17;23.45;;;;;;;0.39;87.62;101352.98;1473531;88;21530;-78
2022/10/21 00:26:13;;;;;;;37.38;23.90;;;;;;;0.36;87.71;101351.34;1471116;88;21574;-83
2022/10/21 00:28:41;;;;;;;43.25;19.77;;;;;;;0.30;88.49;101345.07;1460763;88;22308;-83
2022/10/21 00:31:09;;;;;;;40.35;21.00;;;;;;;0.26;87.97;101356.52;1477232;87;21433;-81
2022/10/21 00:33:36;;;;;;;49.70;22.45;;;;;;;0.22;87.45;101344.05;1469382;87;21382;-80
2022/10/21 00:36:02;;;;;;;39.25;19.92;;;;;;;0.20;88.60;101345.02;1470472;88;22419;-82
2022/10/21 00:38:31;;;;;;;42.23;21.97;;;;;;;0.19;87.74;101335.06;1466088;87;22588;-82
2022/10/21 00:40:58;;;;;;;45.05;20.88;;;;;;;0.19;87.93;101339.42;1448131;88;22733;-80
2022/10/21 00:43:27;;;;;;;34.13;18.25;;;;;;;0.13;89.04;101337.06;1481957;87;22306;-81
2022/10/21 00:45:59;;;;;;;41.83;23.02;;;;;;;0.10;89.26;101335.88;1469443;88;21427;-82
2022/10/21 00:48:34;;;;;;;40.75;23.02;;;;;;;0.10;88.07;101338.48;1475308;88;21397;-81
2022/10/21 00:51:05;;;;;;;38.23;19.85;;;;;;;0.08;87.74;101335.92;1475021;88;21628;-81
2022/10/21 00:53:34;;;;;;;36.60;19.92;;;;;;;0.07;88.21;101326.89;1462212;87;21487;-81
2022/10/21 00:56:11;;;;;;;39.42;19.60;;;;;;;0.06;89.53;101331.68;1463160;88;21419;-79
2022/10/21 00:58:38;;;;;;;37.25;20.02;;;;;;;0.05;87.89;101326.09;1469378;88;21486;-80
2022/10/21 01:01:06;;;;;;;35.25;19.92;;;;;;;-0.03;88.34;101336.35;1464860;88;21566;-80
2022/10/21 01:03:34;;;;;;;33.70;17.87;;;;;;;-0.04;87.64;101332.03;1479896;88;21537;-82
2022/10/21 01:06:05;;;;;;;40.10;20.43;;;;;;;-0.07;89.02;101328.70;1458965;88;21353;-82
2022/10/21 01:08:31;;;;;;;34.18;17.30;;;;;;;;;;1477534;87;22358;-82
2022/10/21 01:10:59;;;;;;;37.03;19.87;;;;;;;-0.10;89.12;101314.05;1480467;88;21448;-82
2022/10/21 01:13:54;;;;;;;44.48;22.50;;;;;;;-0.10;88.14;101320.55;1451716;89;21456;-83
2022/10/21 01:16:28;;;;;;;38.73;19.10;;;;;;;-0.11;88.31;101312.36;1462163;89;21552;-82
2022/10/21 01:19:09;;;;;;;38.98;20.52;;;;;;;-0.13;88.32;101323.27;1463029;88;21492;-83
2022/10/21 01:21:45;;;;;;;45.60;20.23;;;;;;;-0.13;87.75;101314.16;1474869;87;22499;-82
2022/10/21 01:24:39;;;;;;;38.33;21.25;;;;;;;-0.15;88.84;101313.37;1468963;88;21426;-82
2022/10/21 01:27:20;;;;;;;38.85;21.35;;;;;;;-0.17;88.12;101313.02;1463635;88;21390;-83
2022/10/21 01:30:28;;;;;;;34.75;20.43;;;;;;;-0.19;89.04;101311.80;1471474;88;21391;-83
2022/10/21 01:33:14;;;;;;;48.10;21.07;;;;;;;-0.18;88.98;101312.64;1459189;88;21611;-82
2022/10/21 01:36:13;;;;;;;35.88;20.00;;;;;;;-0.20;88.91;101302.31;1462806;88;21360;-83
2022/10/21 01:39:07;;;;;;;39.13;23.00;;;;;;;-0.19;88.69;101301.39;1457901;89;21500;-82
2022/10/21 01:41:56;;;;;;;40.67;23.47;;;;;;;-0.20;89.18;101310.11;1457748;88;21426;-83
2022/10/21 01:44:31;;;;;;;40.12;23.65;;;;;;;-0.23;89.21;101306.33;1479266;87;22328;-83
2022/10/21 01:47:02;;;;;;;40.55;21.40;;;;;;;-0.29;90.05;101306.10;1471884;88;21509;-83
2022/10/21 01:49:41;;;;;;;32.50;19.25;;;;;;;-0.36;89.74;101303.77;1451273;88;22442;-83
2022/10/21 01:52:09;;;;;;;34.98;17.65;;;;;;;-0.39;88.88;101301.28;1449811;88;21426;-83
2022/10/21 01:54:40;;;;;;;32.42;16.62;;;;;;;-0.44;88.68;101296.23;1463496;89;21464;-83
2022/10/21 01:57:07;;;;;;;;;;;;;;;-0.53;88.63;101293.98;1455029;88;21412;-84
2022/10/21 01:59:35;;;;;;;34.18;18.52;;;;;;;-0.62;89.34;101295.16;1473693;88;21238;-81
2022/10/21 02:02:05;;;;;;;35.55;18.23;;;;;;;-0.62;88.65;101292.56;1459893;88;21434;-79
2022/10/21 02:04:35;;;;;;;33.00;17.50;;;;;;;-0.66;88.92;101292.28;1475407;88;21412;-80
2022/10/21 02:07:02;;;;;;;33.48;19.45;;;;;;;-0.70;89.25;101298.02;1468502;87;21471;-80
2022/10/21 02:09:28;;;;;;;36.45;19.73;;;;;;;-0.76;90.41;101292.20;1455255;88;21478;-82
2022/10/21 02:11:59;;;;;;;28.20;17.20;;;;;;;-0.73;89.73;101294.69;1474849;87;21419;-81
2022/10/21 02:14:33;;;;;;;34.45;20.48;;;;;;;-0.72;89.59;101298.55;1480399;87;21763;-81
2022/10/21 02:16:59;;;;;;;33.50;18.37;;;;;;;-0.73;89.43;101298.13;1475343;87;21339;-81
2022/10/21 02:19:27;;;;;;;34.67;19.37;;;;;;;-0.75;90.10;101293.88;1454044;88;21457;-83
2022/10/21 02:21:58;;;;;;;37.63;19.50;;;;;;;-0.75;89.89;101298.66;1466918;87;21472;-82
2022/10/21 02:24:38;;;;;;;31.10;17.07;;;;;;;-0.74;88.70;101293.84;1479294;88;22068;-82
2022/10/21 02:27:05;;;;;;;33.18;17.85;;;;;;;-0.76;88.03;101286.55;1448933;88;21324;-80
2022/10/21 02:29:38;;;;;;;30.00;18.23;;;;;;;-0.79;88.30;101297.51;1447634;89;21397;-81
2022/10/21 02:32:15;;;;;;;34.65;17.82;;;;;;;-0.84;88.59;101291.61;1459740;88;21717;-81
2022/10/21 02:35:28;;;;;;;49.50;19.73;;;;;;;-0.89;87.90;101286.59;1469915;87;21671;-81
2022/10/21 02:38:21;;;;;;;32.23;16.62;;;;;;;-0.94;87.74;101289.34;1476699;87;21563;-83
2022/10/21 02:41:10;;;;;;;28.95;17.07;;;;;;;-0.99;88.30;101287.34;1474212;87;21472;-83
2022/10/21 02:43:44;;;;;;;30.70;17.25;;;;;;;-1.02;87.98;101290.05;1457645;89;21559;-83
2022/10/21 02:46:13;;;;;;;31.45;17.60;;;;;;;-1.03;88.60;101281.03;1447528;90;21485;-81
2022/10/21 02:48:47;;;;;;;30.40;17.90;;;;;;;-1.08;89.01;101287.67;1457916;90;22610;-82
2022/10/21 02:51:14;;;;;;;28.23;17.02;;;;;;;-1.06;89.70;101279.38;1450535;90;21515;-82
2022/10/21 02:53:40;;;;;;;31.93;16.75;;;;;;;-1.04;88.95;101279.31;1454012;89;21605;-83
2022/10/21 02:56:08;;;;;;;30.08;17.90;;;;;;;-1.00;88.13;101286.96;1451258;89;21574;-82
2022/10/21 02:58:34;;;;;;;30.92;17.32;;;;;;;-1.00;89.38;101283.06;1455060;89;21449;-83
2022/10/21 03:01:00;;;;;;;26.62;15.68;;;;;;;-1.00;89.64;101289.56;1450974;89;21465;-83
2022/10/21 03:03:28;;;;;;;31.23;16.35;;;;;;;-0.98;89.38;101296.86;1460888;90;21553;-82
2022/10/21 03:05:56;;;;;;;26.77;14.83;;;;;;;-0.97;89.49;101293.80;1459308;89;21447;-83
2022/10/21 03:08:22;;;;;;;29.70;16.75;;;;;;;-0.96;89.11;101292.89;1446737;90;21361;-80
2022/10/21 03:10:49;;;;;;;31.23;16.70;;;;;;;-0.98;89.74;101295.56;1446235;89;21538;-79
2022/10/21 03:13:15;;;;;;;26.62;15.43;;;;;;;-1.00;88.48;101293.45;1443941;88;22240;-81
2022/10/21 03:15:41;;;;;;;33.65;18.07;;;;;;;-1.03;87.72;101294.86;1449250;89;21560;-82
2022/10/21 03:18:08;;;;;;;31.27;18.45;;;;;;;-1.05;87.85;101282.36;1467725;88;21346;-81
2022/10/21 03:20:34;;;;;;;26.42;15.00;;;;;;;-1.07;88.31;101285.45;1472366;88;22270;-82
2022/10/21 03:23:00;;;;;;;30.45;16.23;;;;;;;-1.11;88.60;101290.83;1470049;88;21397;-80
2022/10/21 03:25:26;;;;;;;32.28;17.05;;;;;;;-1.15;89.08;101290.09;1465791;87;21397;-79
2022/10/21 03:27:52;;;;;;;32.80;17.03;;;;;;;-1.18;89.76;101298.83;1453901;88;21295;-81
2022/10/21 03:30:19;;;;;;;29.25;14.58;;;;;;;-1.18;89.76;101298.83;1454105;88;22043;-81
2022/10/21 03:32:45;;;;;;;28.05;17.42;;;;;;;-1.19;89.53;101305.36;1450174;89;21449;-81
2022/10/21 03:35:11;;;;;;;27.37;15.70;;;;;;;-1.20;89.43;101312.77;1466038;88;21345;-80
2022/10/21 03:37:37;;;;;;;28.57;17.03;;;;;;;-1.22;89.66;101308.06;1463372;87;21389;-78
2022/10/21 03:40:05;;;;;;;33.63;17.77;;;;;;;-1.21;88.54;101311.92;1460596;88;21317;-80
2022/10/21 03:42:32;;;;;;;29.82;17.25;;;;;;;-1.20;87.88;101310.17;1458297;88;21323;-81
2022/10/21 03:44:58;;;;;;;38.38;18.07;;;;;;;-1.21;87.22;101300.23;1457896;88;21427;-81
2022/10/21 03:47:24;;;;;;;29.53;17.17;;;;;;;-1.23;86.71;101294.69;1451448;89;21483;-80
2022/10/21 03:49:50;;;;;;;29.80;18.12;;;;;;;-1.28;86.67;101294.83;1448691;90;22300;-80
2022/10/21 03:52:16;;;;;;;31.47;18.17;;;;;;;-1.25;86.18;101283.49;1449421;89;21463;-81
2022/10/21 03:54:42;;;;;;;34.00;18.17;;;;;;;-1.25;86.07;101280.89;1461772;88;21515;-81
2022/10/21 03:57:09;;;;;;;35.33;17.50;;;;;;;-1.32;86.89;101278.96;1465555;87;22292;-79
2022/10/21 03:59:35;;;;;;;32.67;18.30;;;;;;;-1.40;86.82;101280.50;1451932;88;22010;-82
2022/10/21 04:02:01;;;;;;;38.35;18.77;;;;;;;-1.41;86.49;101276.22;1465082;88;22373;-83
2022/10/21 04:04:27;;;;;;;40.75;21.62;;;;;;;-1.41;87.13;101280.12;1454358;89;21479;-82
2022/10/21 04:06:53;;;;;;;33.37;17.60;;;;;;;-1.37;86.69;101284.30;1485895;86;21404;-81
2022/10/21 04:09:19;;;;;;;38.93;19.47;;;;;;;-1.32;87.60;101288.47;1512807;86;21492;-80
2022/10/21 04:11:45;;;;;;;35.15;19.07;;;;;;;-1.30;88.69;101273.70;1494440;86;22058;-79
2022/10/21 04:14:11;;;;;;;35.63;19.57;;;;;;;-1.26;87.66;101281.34;1460313;89;21391;-80
2022/10/21 04:16:37;;;;;;;38.20;20.10;;;;;;;-1.23;87.44;101279.11;1461009;88;21330;-80
2022/10/21 04:19:03;;;;;;;37.25;21.12;;;;;;;-1.24;88.15;101273.48;1471621;88;21752;-80
2022/10/21 04:21:29;;;;;;;39.08;20.52;;;;;;;-1.27;87.38;101273.14;1459705;88;21412;-80
2022/10/21 04:23:55;;;;;;;43.60;22.20;;;;;;;-1.28;87.44;101266.72;1465493;87;21700;-79
2022/10/21 04:26:21;;;;;;;36.73;19.92;;;;;;;-1.27;87.19;101256.71;1457714;88;22293;-80
2022/10/21 04:28:48;;;;;;;35.80;19.40;;;;;;;-1.25;86.96;101248.43;1476760;88;21424;-79
2022/10/21 04:31:14;;;;;;;40.85;18.95;;;;;;;-1.26;86.69;101245.45;1488215;88;21433;-80
2022/10/21 04:33:40;;;;;;;37.60;22.13;;;;;;;-1.30;87.78;101229.55;1458439;89;21963;-79
2022/10/21 04:36:06;;;;;;;48.90;25.62;;;;;;;-1.31;87.08;101229.16;1461960;89;21379;-80
2022/10/21 04:38:33;;;;;;;54.23;24.87;;;;;;;-1.34;89.01;101226.67;1487114;88;22365;-80
2022/10/21 04:41:01;;;;;;;49.13;26.33;;;;;;;-1.35;87.89;101227.13;1491902;88;21606;-80
2022/10/21 04:43:29;;;;;;;49.77;25.08;;;;;;;-1.37;88.28;101233.66;1474794;88;22240;-80
2022/10/21 04:45:55;;;;;;;54.03;26.50;;;;;;;-1.40;88.52;101236.36;1457672;88;21724;-79
2022/10/21 04:48:22;;;;;;;55.25;27.98;;;;;;;-1.42;87.96;101245.94;1494579;87;21486;-81
2022/10/21 04:50:52;;;;;;;54.35;25.12;;;;;;;-1.43;87.49;101226.08;1479555;88;21413;-82
2022/10/21 04:53:19;;;;;;;41.83;19.77;;;;;;;-1.45;87.62;101222.67;1490099;88;22427;-80
2022/10/21 04:55:52;;;;;;;43.48;19.07;;;;;;;-1.48;87.87;101233.16;1485598;87;21413;-80
2022/10/21 04:58:20;;;;;;;36.42;19.20;;;;;;;-1.53;87.61;101238.11;1473352;87;22478;-80
2022/10/21 05:00:46;;;;;;;51.77;19.85;;;;;;;-1.56;87.82;101239.05;1472835;87;21532;-80
2022/10/21 05:03:12;;;;;;;36.48;18.50;;;;;;;-1.59;88.64;101237.86;1458558;88;22374;-79
2022/10/21 05:05:38;;;;;;;44.20;19.52;;;;;;;-1.62;89.10;101236.66;1479789;88;21412;-80
2022/10/21 05:08:05;;;;;;;59.70;22.40;;;;;;;-1.62;88.88;101236.20;1473933;87;21382;-81
2022/10/21 05:10:31;;;;;;;76.12;27.80;;;;;;;-1.59;88.83;101240.45;1475353;88;22392;-80
2022/10/21 05:12:57;;;;;;;61.73;22.42;;;;;;;-1.57;88.76;101230.88;1481280;87;21442;-77
2022/10/21 05:15:25;;;;;;;55.63;22.82;;;;;;;-1.55;89.50;101228.22;1476172;87;21463;-80
2022/10/21 05:17:52;;;;;;;50.23;21.02;;;;;;;-1.55;89.16;101229.52;1477993;88;21552;-81
2022/10/21 05:20:19;;;;;;;38.00;20.60;;;;;;;-1.55;89.80;101232.11;1452940;88;21462;-83
2022/10/21 05:22:45;;;;;;;33.58;17.90;;;;;;;-1.51;89.83;101232.42;1443980;87;22285;-80
2022/10/21 05:25:11;;;;;;;29.90;16.73;;;;;;;-1.45;89.01;101232.22;1472293;88;21614;-80
2022/10/21 05:27:37;;;;;;;30.85;16.80;;;;;;;-1.40;89.53;101225.97;1471333;87;22314;-85
2022/10/21 05:30:05;;;;;;;31.33;16.20;;;;;;;-1.33;89.67;101243.94;1458164;87;21442;-80
2022/10/21 05:32:31;;;;;;;30.77;18.67;;;;;;;-1.36;89.17;101235.34;1454780;89;21545;-81
2022/10/21 05:34:57;;;;;;;32.40;18.13;;;;;;;-1.30;88.43;101229.09;1452991;89;21426;-76
2022/10/21 05:37:23;;;;;;;30.03;18.40;;;;;;;-1.23;88.11;101212.87;1453811;89;22146;-79
2022/10/21 05:39:49;;;;;;;36.53;19.12;;;;;;;-1.25;87.94;101222.45;1458035;89;22494;-80
2022/10/21 05:42:15;;;;;;;34.47;18.07;;;;;;;-1.23;87.92;101227.16;1465079;88;21325;-83
2022/10/21 05:44:41;;;;;;;40.83;18.90;;;;;;;-1.17;87.78;101221.74;1456895;89;21480;-84
2022/10/21 05:47:07;;;;;;;36.95;22.60;;;;;;;-1.14;87.80;101227.67;1443957;89;22185;-82
2022/10/21 05:49:33;;;;;;;36.38;21.40;;;;;;;-1.03;87.48;101222.56;1453033;89;21517;-85
2022/10/21 05:52:01;;;;;;;35.13;20.77;;;;;;;-0.94;87.77;101210.54;1459765;88;22491;-92
2022/10/21 05:54:27;;;;;;;41.15;21.48;;;;;;;-0.85;88.20;101209.36;1477550;88;22462;-85
2022/10/21 05:56:57;;;;;;;48.00;23.95;;;;;;;-0.77;88.03;101211.23;1479177;88;21485;-84
2022/10/21 05:59:24;;;;;;;42.20;22.98;;;;;;;-0.70;87.83;101212.23;1480938;88;21529;-84
2022/10/21 06:01:51;;;;;;;35.50;21.27;;;;;;;-0.66;87.80;101212.98;1481950;87;21530;-83
2022/10/21 06:04:17;;;;;;;44.48;25.77;;;;;;;-0.64;88.35;101210.31;1464861;88;21533;-84
2022/10/21 06:06:43;;;;;;;42.65;22.48;;;;;;;-0.60;88.01;101212.76;1465066;88;21515;-85
2022/10/21 06:09:09;;;;;;;42.88;22.70;;;;;;;-0.57;88.42;101212.64;1466457;88;21382;-83
2022/10/21 06:11:35;;;;;;;36.80;21.12;;;;;;;-0.53;88.71;101209.01;1480683;87;21367;-83
2022/10/21 06:14:01;;;;;;;36.93;18.23;;;;;;;-0.44;89.07;101206.52;1480582;87;21374;-86
2022/10/21 06:16:27;;;;;;;37.73;19.95;;;;;;;-0.37;89.21;101214.49;1472879;88;21418;-83
2022/10/21 06:18:53;;;;;;;36.10;20.82;;;;;;;-0.25;88.79;101216.61;1481614;88;21651;-85
2022/10/21 06:21:19;;;;;;;35.47;20.20;;;;;;;-0.15;89.46;101217.09;1466766;87;22308;-85
2022/10/21 06:23:45;;;;;;;34.47;20.93;;;;;;;-0.03;89.28;101225.74;1460040;88;21884;-85
2022/10/21 06:26:14;;;;;;;34.98;19.05;;;;;;;0.14;88.87;101232.86;1467845;88;22252;-85
2022/10/21 06:28:43;;;;;;;33.40;19.20;;;;;;;0.35;88.71;101230.33;1460220;89;21440;-83
2022/10/21 06:31:13;;;;;;;36.85;19.92;;;;;;;0.52;88.55;101227.00;1416114;88;21412;-86
2022/10/21 06:33:55;;;;;;;36.85;20.52;;;;;;;0.63;88.03;101226.09;1476192;88;21345;-85
2022/10/21 06:36:21;;;;;;;36.50;21.53;;;;;;;0.73;87.99;101235.23;1502156;88;21515;-85
2022/10/21 06:38:47;;;;;;;34.33;19.20;;;;;;;0.82;88.12;101232.23;1466751;88;22672;-85
2022/10/21 06:41:14;;;;;;;43.90;20.03;;;;;;;0.96;88.62;101225.59;1480259;87;21434;-84
2022/10/21 06:43:41;;;;;;;32.67;17.63;;;;;;;1.04;88.59;101223.50;1482569;87;22292;-86
2022/10/21 06:46:12;;;;;;;27.20;17.37;;;;;;;1.06;88.43;101222.48;1409168;88;21536;-83
2022/10/21 06:48:38;;;;;;;22.45;14.68;;;;;;;1.21;88.42;101225.34;1390004;87;21472;-85
2022/10/21 06:51:09;;;;;;;27.27;17.77;;;;;;;1.30;88.06;101243.20;1405365;89;21388;-85
2022/10/21 06:53:36;;;;;;;32.23;19.02;;;;;;;1.49;88.01;101231.47;1454246;88;21705;-86
2022/10/21 06:56:09;;;;;;;25.40;15.03;;;;;;;1.73;87.90;101228.21;1531015;86;22350;-84
2022/10/21 06:58:37;;;;;;;24.73;14.80;;;;;;;1.95;87.54;101229.34;1478484;86;21655;-85
2022/10/21 07:01:20;;;;;;;20.77;14.77;;;;;;;2.17;87.44;101235.23;1487986;86;21869;-86
2022/10/21 07:03:46;;;;;;;23.23;13.90;;;;;;;2.33;86.90;101244.48;1463975;87;21486;-83
2022/10/21 07:06:13;;;;;;;28.27;15.53;;;;;;;2.48;85.60;101246.81;1466147;88;22587;-85
2022/10/21 07:08:39;;;;;;;24.73;14.37;;;;;;;2.64;85.72;101243.80;1476103;86;21653;-85
2022/10/21 07:11:06;;;;;;;25.27;13.63;;;;;;;2.80;85.42;101253.50;1460225;88;21662;-85
2022/10/21 07:13:34;;;;;;;25.53;14.63;;;;;;;2.96;84.96;101246.55;1463889;88;22597;-81
2022/10/21 07:16:04;;;;;;;22.83;13.03;;;;;;;3.18;85.22;101248.06;1463088;88;21752;-86
2022/10/21 07:18:31;;;;;;;20.53;11.97;;;;;;;3.45;85.33;101237.91;1476975;88;21668;-85
2022/10/21 07:21:08;;;;;;;24.13;12.17;;;;;;;3.62;82.61;101237.84;1403125;88;21754;-85
2022/10/21 07:23:34;;;;;;;20.20;12.80;;;;;;;3.76;82.24;101238.41;1459915;88;22481;-84
2022/10/21 07:26:06;;;;;;;27.23;13.67;;;;;;;4.13;82.48;101234.58;1463406;88;22246;-87
2022/10/21 07:28:35;;;;;;;;;;;;;;;4.13;82.48;101234.58;1469689;88;21976;-86
2022/10/21 07:31:03;;;;;;;31.53;14.87;;;;;;;4.36;81.95;101231.97;1475051;88;20413;-82
2022/10/21 07:33:29;;;;;;;38.80;20.57;;;;;;;4.63;81.79;101228.67;1460849;88;22240;-85
2022/10/21 07:36:06;;;;;;;21.03;12.60;;;;;;;4.85;81.05;101230.41;1456814;88;22149;-85
2022/10/21 07:38:32;;;;;;;20.73;10.87;;;;;;;5.05;80.79;101213.48;1460141;89;22230;-82
2022/10/21 07:40:58;;;;;;;20.10;13.03;;;;;;;5.27;80.22;101220.06;1467658;88;22076;-84
2022/10/21 07:43:24;;;;;;;20.00;11.40;;;;;;;5.69;78.96;101206.50;1475447;88;22157;-87
2022/10/21 07:45:51;;;;;;;18.13;10.23;;;;;;;5.86;79.11;101205.78;1488143;87;22409;-85
2022/10/21 07:48:17;;;;;;;15.63;9.97;;;;;;;5.86;79.11;101205.78;1477907;87;22075;-83
2022/10/21 07:50:44;;;;;;;14.90;9.93;;;;;;;6.10;76.65;101202.58;1480751;88;22654;-84
2022/10/21 07:53:10;;;;;;;17.33;8.83;;;;;;;6.28;76.99;101203.98;1474085;86;21426;-85
2022/10/21 07:55:36;;;;;;;12.73;8.70;;;;;;;6.46;75.76;101208.98;1463213;88;21398;-85
2022/10/21 07:58:03;;;;;;;12.10;8.87;;;;;;;6.62;75.04;101224.56;1458106;88;21507;-82
2022/10/21 08:00:30;;;;;;;10.13;7.67;;;;;;;6.78;75.60;101226.54;1460604;88;21580;-82
2022/10/21 08:02:56;;;;;;;13.90;9.07;;;;;;;6.94;75.35;101215.83;1468585;88;21577;-83
2022/10/21 08:05:23;;;;;;;13.30;8.90;;;;;;;7.12;75.09;101221.61;1482154;86;21617;-81
2022/10/21 08:07:49;;;;;;;15.73;8.93;;;;;;;7.29;73.60;101217.81;1497581;86;21604;-78
2022/10/21 08:10:15;;;;;;;71.70;15.87;;;;;;;7.34;71.78;101215.70;1476081;88;21551;-80
2022/10/21 08:12:41;;;;;;;71.00;14.63;;;;;;;7.33;71.26;101204.78;1459241;88;21448;-78
2022/10/21 08:15:08;;;;;;;13.87;8.63;;;;;;;7.44;72.50;101194.34;1481919;88;21521;-77
2022/10/21 08:17:35;;;;;;;14.33;9.03;;;;;;;7.62;72.83;101191.73;1470347;88;21440;-79
2022/10/21 08:20:01;;;;;;;15.53;8.87;;;;;;;7.82;72.45;101188.95;1425668;91;21504;-78
2022/10/21 08:22:27;;;;;;;12.93;7.80;;;;;;;7.98;71.25;101190.02;1415365;92;21481;-77
2022/10/21 08:24:53;;;;;;;13.83;8.30;;;;;;;8.16;71.23;101192.25;1410192;92;22478;-78
2022/10/21 08:27:19;;;;;;;18.17;7.93;;;;;;;8.28;70.30;101196.13;1414204;92;21578;-77
2022/10/21 08:29:47;;;;;;;11.67;8.83;;;;;;;8.43;70.03;101204.75;1412650;92;21769;-77
2022/10/21 08:32:13;;;;;;;13.87;7.10;;;;;;;8.59;68.74;101196.02;1413555;92;22295;-79
2022/10/21 08:34:40;;;;;;;13.30;7.77;;;;;;;8.74;69.07;101194.50;1408585;92;21429;-77
2022/10/21 08:37:06;;;;;;;11.87;8.17;;;;;;;8.87;68.90;101180.73;1415457;92;21654;-79
2022/10/21 08:39:32;;;;;;;12.30;7.63;;;;;;;9.09;68.98;101183.88;1410134;92;22495;-76
2022/10/21 08:42:09;;;;;;;13.97;8.50;;;;;;;9.23;67.39;101186.73;1415627;92;21489;-78
2022/10/21 08:44:55;;;;;;;11.77;8.10;;;;;;;9.30;67.02;101186.63;1418530;92;21592;-77
2022/10/21 08:47:35;;;;;;;12.77;8.33;;;;;;;9.41;66.40;101183.98;1393667;92;22033;-78
2022/10/21 08:50:07;;;;;;;18.23;8.75;;;;;;;9.46;65.17;101180.96;1409157;92;22553;-80
2022/10/21 08:52:48;;;;;;;18.27;7.17;;;;;;;9.40;64.47;101184.92;1406764;92;21599;-80
2022/10/21 08:55:22;;;;;;;12.10;7.75;;;;;;;9.56;66.00;101174.48;1414747;92;22641;-85
2022/10/21 08:57:52;;;;;;;11.30;7.63;;;;;;;9.82;66.45;101175.02;1409795;92;21556;-80
2022/10/21 09:00:23;;;;;;;11.30;6.83;;;;;;;10.07;65.36;101172.52;1333472;92;21541;-78
2022/10/21 09:02:53;;;;;;;;;;;;;;;10.20;59.84;101168.39;1535902;90;21526;-81
2022/10/21 09:05:34;;;;;;;14.03;8.57;;;;;;;10.53;60.35;101184.60;1531332;89;20224;-80
2022/10/21 09:08:40;;;;;;;15.73;7.47;;;;;;;11.22;63.38;101172.95;1376015;91;22344;-79
2022/10/21 09:14:59;;;;;;;12.17;6.70;;;;;;;12.81;59.12;101167.48;1392396;88;21567;-80
2022/10/21 09:17:52;;;;;;;10.30;6.90;;;;;;;13.98;57.37;101163.27;1462273;87;22299;-80
2022/10/21 09:20:42;;;;;;;13.07;8.20;;;;;;;14.73;53.75;101160.70;1361000;94;21598;-81
2022/10/21 09:23:27;;;;;;;10.77;7.03;;;;;;;15.52;53.07;101156.93;1443913;92;22532;-80
2022/10/21 09:25:58;;;;;;;10.53;7.00;;;;;;;15.92;50.14;101154.05;1518983;90;21479;-80
2022/10/21 09:28:25;;;;;;;9.18;6.37;;;;;;;16.54;49.36;101159.72;1373190;90;22410;-79
2022/10/21 09:30:53;;;;;;;9.37;6.00;;;;;;;16.75;46.10;101160.54;1381894;90;22550;-81
2022/10/21 09:33:24;;;;;;;14.43;5.85;;;;;;;17.16;46.78;101151.09;1376457;90;21316;-81
2022/10/21 09:35:55;;;;;;;8.83;4.92;;;;;;;17.47;45.39;101155.13;1533494;90;21361;-79
2022/10/21 09:38:34;;;;;;;9.68;5.65;;;;;;;17.54;41.58;101145.89;1523754;89;21557;-80
2022/10/21 09:41:02;;;;;;;10.38;6.17;;;;;;;17.67;44.22;101146.67;1512682;90;21604;-81
2022/10/21 09:43:29;;;;;;;9.75;5.75;;;;;;;17.84;43.55;101146.92;1442995;88;21573;-82
2022/10/21 09:45:56;;;;;;;6.90;5.37;;;;;;;18.12;43.30;101137.83;1467574;88;21531;-81
2022/10/21 09:48:40;;;;;;;8.00;5.37;;;;;;;18.31;42.00;101133.83;1460475;88;21575;-83
2022/10/21 09:51:17;;;;;;;8.38;5.03;;;;;;;18.37;41.40;101135.78;1462228;87;21419;-83
2022/10/21 09:53:48;;;;;;;10.32;6.35;;;;;;;18.57;41.79;101141.97;1447646;89;22262;-82
2022/10/21 09:56:29;;;;;;;8.05;5.55;;;;;;;18.16;41.35;101132.97;1525637;89;21427;-83
2022/10/21 09:59:15;;;;;;;9.33;6.65;;;;;;;18.02;42.24;101131.89;1430032;89;21603;-81
2022/10/21 10:01:42;;;;;;;9.03;6.00;;;;;;;17.90;41.29;101132.82;1395175;89;21382;-82
2022/10/21 10:04:30;;;;;;;9.55;5.75;;;;;;;18.02;41.04;101126.03;1482272;87;22372;-83
2022/10/21 10:07:04;;;;;;;7.30;5.85;;;;;;;18.28;41.07;101122.13;1458917;89;21555;-82
2022/10/21 10:09:32;;;;;;;10.78;5.50;;;;;;;18.35;37.55;101120.38;1468592;89;21515;-82
2022/10/21 10:12:06;;;;;;;12.15;6.53;;;;;;;18.28;39.67;101117.28;1383863;88;21479;-83
2022/10/21 10:14:38;;;;;;;15.88;5.55;;;;;;;18.23;40.47;101105.77;1544025;88;21404;-82
2022/10/21 10:17:36;;;;;;;10.35;5.80;;;;;;;18.28;39.07;101096.68;1547831;88;22388;-81
2022/10/21 10:20:13;;;;;;;13.80;6.33;;;;;;;18.49;40.29;101088.75;1493620;87;21560;-82
2022/10/21 10:22:46;;;;;;;9.08;5.90;;;;;;;18.58;40.71;101081.97;1460534;87;21403;-82
2022/10/21 10:25:21;;;;;;;10.93;6.80;;;;;;;18.39;39.86;101084.18;1543090;88;21369;-81
2022/10/21 10:27:55;;;;;;;9.85;5.47;;;;;;;18.38;39.90;101081.67;1549559;88;21296;-81
2022/10/21 10:30:25;;;;;;;13.53;4.12;;;;;;;18.21;39.85;101081.84;1472231;89;21392;-82
2022/10/21 10:32:53;;;;;;;7.65;4.62;;;;;;;18.07;39.40;101079.11;1383455;89;22281;-82
2022/10/21 10:35:32;;;;;;;8.93;5.15;;;;;;;17.94;39.65;101076.54;1383480;89;22383;-81
2022/10/21 10:38:01;;;;;;;8.88;4.53;;;;;;;18.02;39.76;101073.80;1553285;88;21287;-81
2022/10/21 10:40:38;;;;;;;5.67;3.87;;;;;;;18.21;40.06;101075.15;1406898;88;21316;-82
2022/10/21 10:43:30;;;;;;;4.37;3.83;;;;;;;18.03;38.83;101072.77;1448521;88;21404;-81
2022/10/21 10:46:05;;;;;;;4.65;3.15;;;;;;;17.91;39.07;101072.06;1458434;88;21607;-82
2022/10/21 10:48:47;;;;;;;6.22;3.12;;;;;;;17.90;38.24;101078.44;1461012;88;21361;-82
2022/10/21 10:51:31;;;;;;;5.72;4.90;;;;;;;17.95;38.52;101072.88;1471117;88;21366;-81
2022/10/21 10:54:27;;;;;;;7.42;4.53;;;;;;;17.59;37.74;101068.08;1474688;87;22721;-80
2022/10/21 10:57:06;;;;;;;6.22;4.53;;;;;;;17.88;38.71;101072.42;1543698;89;21330;-80
2022/10/21 10:59:44;;;;;;;7.47;5.40;;;;;;;18.17;38.79;101070.33;1465582;86;21436;-85
2022/10/21 11:02:19;;;;;;;6.37;4.85;;;;;;;18.13;38.05;101063.68;1471309;86;22364;-83
2022/10/21 11:05:06;;;;;;;10.38;5.12;;;;;;;17.94;37.62;101067.17;1471448;88;22416;-85
2022/10/21 11:07:38;;;;;;;10.85;4.78;;;;;;;17.85;37.88;101049.52;1486423;86;21543;-83
2022/10/21 11:10:09;;;;;;;6.97;4.17;;;;;;;17.75;38.14;101047.55;1475846;86;21403;-85
2022/10/21 11:12:35;;;;;;;8.95;3.70;;;;;;;17.66;38.24;101043.27;1496757;86;22170;-85
2022/10/21 11:15:01;;;;;;;12.98;3.67;;;;;;;17.58;37.72;101037.49;1455574;89;21507;-88
2022/10/21 11:17:54;;;;;;;16.90;5.12;;;;;;;17.43;37.06;101042.75;1451749;89;21522;-88
2022/10/21 11:20:34;;;;;;;7.33;4.30;;;;;;;17.34;37.43;101041.97;1477495;88;21449;-82
2022/10/21 11:23:26;;;;;;;8.68;4.10;;;;;;;17.55;37.97;101035.14;1465272;88;21397;-83
2022/10/21 11:26:00;;;;;;;8.95;3.87;;;;;;;17.89;38.04;101031.23;1459351;88;21425;-81
2022/10/21 11:28:35;;;;;;;7.87;4.28;;;;;;;18.36;37.78;101027.45;1465407;89;22175;-82
2022/10/21 11:31:41;;;;;;;10.53;3.47;;;;;;;18.79;37.96;101024.45;1459365;88;22414;-81
2022/10/21 11:34:16;;;;;;;8.83;4.53;;;;;;;18.92;35.44;101019.23;1464572;88;22380;-81
2022/10/21 11:36:59;;;;;;;12.90;4.37;;;;;;;18.76;37.02;101006.06;1456964;89;21529;-82
2022/10/21 11:39:48;;;;;;;8.05;3.98;;;;;;;18.83;35.94;100996.75;1457188;88;21485;-81